Time;durP1;ratioP1;P1;durP2;ratioP2;P2;SDS_P1;SDS_P2;PMS_P1;PMS_P2;Temp;Humidity;BMP_temperature;BMP_pressure;BME280_temperature;BME280_humidity;BME280_pressure;Samples;Min_cycle;Max_cycle;Signal;HPM_P1;HPM_P2
2023/01/30 00:02:08;;;;;;;6.63;3.65;;;19.40;53.30;;;;;;5053016;28;20040;-65
2023/01/30 00:04:34;;;;;;;7.93;3.70;;;19.40;53.30;;;;;;5053841;28;20095;-65
2023/01/30 00:06:59;;;;;;;6.47;3.70;;;19.40;53.30;;;;;;5052155;28;20044;-65
2023/01/30 00:09:25;;;;;;;6.35;3.75;;;19.40;53.30;;;;;;5052543;28;20095;-65
2023/01/30 00:11:50;;;;;;;6.07;3.40;;;19.40;53.20;;;;;;5053212;28;20048;-65
2023/01/30 00:14:16;;;;;;;5.15;3.40;;;19.40;53.20;;;;;;5053187;28;20053;-65
2023/01/30 00:16:42;;;;;;;6.18;3.40;;;19.40;53.20;;;;;;5060562;28;20048;-65
2023/01/30 00:19:07;;;;;;;5.53;3.40;;;19.40;53.20;;;;;;5073276;28;20131;-65
2023/01/30 00:21:33;;;;;;;6.78;3.58;;;19.40;53.20;;;;;;5072884;28;20540;-65
2023/01/30 00:23:59;;;;;;;6.53;3.38;;;19.30;53.10;;;;;;5073401;28;20036;-65
2023/01/30 00:26:25;;;;;;;4.97;3.45;;;19.30;53.10;;;;;;5073559;28;20138;-64
2023/01/30 00:28:51;;;;;;;5.45;3.53;;;19.30;53.10;;;;;;5072455;28;20087;-64
2023/01/30 00:31:16;;;;;;;6.05;3.90;;;19.30;53.10;;;;;;5073347;28;20044;-65
2023/01/30 00:33:42;;;;;;;5.53;3.60;;;19.30;53.10;;;;;;5071206;28;20037;-65
2023/01/30 00:36:08;;;;;;;6.38;3.40;;;19.30;53.20;;;;;;5072804;28;20045;-65
2023/01/30 00:38:34;;;;;;;5.70;3.50;;;19.30;53.10;;;;;;5071905;28;20049;-65
2023/01/30 00:41:00;;;;;;;6.65;3.47;;;19.30;53.30;;;;;;5072370;28;20040;-64
2023/01/30 00:48:58;;;;;;;4.30;3.15;;;19.20;53.00;;;;;;5050933;28;20049;-64
2023/01/30 00:51:23;;;;;;;6.28;3.30;;;19.20;53.00;;;;;;5050566;28;20454;-65
2023/01/30 00:53:49;;;;;;;6.40;3.33;;;19.20;53.00;;;;;;5052635;28;20051;-65
2023/01/30 00:56:14;;;;;;;5.10;3.50;;;19.20;53.00;;;;;;5052008;28;20033;-64
2023/01/30 00:58:40;;;;;;;5.68;3.10;;;19.20;53.00;;;;;;5051784;28;20484;-65
2023/01/30 01:01:05;;;;;;;4.68;3.05;;;19.20;53.00;;;;;;5051746;28;20048;-64
2023/01/30 01:03:31;;;;;;;5.47;3.40;;;19.20;53.00;;;;;;5051872;28;20048;-64
2023/01/30 01:05:56;;;;;;;4.30;3.08;;;19.20;53.00;;;;;;5052407;28;20128;-65
2023/01/30 01:08:22;;;;;;;6.43;3.22;;;19.20;53.00;;;;;;5052806;28;20045;-65
2023/01/30 01:10:48;;;;;;;6.28;3.33;;;19.20;53.00;;;;;;5051695;28;20033;-64
2023/01/30 01:13:13;;;;;;;5.15;3.03;;;19.20;53.00;;;;;;5052560;28;20041;-64
2023/01/30 01:15:39;;;;;;;5.13;3.03;;;19.10;53.70;;;;;;5051193;28;20132;-64
2023/01/30 01:18:05;;;;;;;5.45;3.70;;;19.10;53.00;;;;;;5051505;28;20095;-65
2023/01/30 01:20:30;;;;;;;7.60;3.50;;;19.10;53.00;;;;;;5050112;28;20041;-65
2023/01/30 01:22:56;;;;;;;5.32;3.17;;;19.10;53.00;;;;;;5051146;28;20052;-64
2023/01/30 01:25:22;;;;;;;4.45;2.78;;;19.10;53.00;;;;;;5051575;28;20097;-64
2023/01/30 01:27:48;;;;;;;5.05;2.88;;;19.10;53.00;;;;;;5050482;28;20041;-64
2023/01/30 01:30:14;;;;;;;5.45;3.10;;;19.10;53.00;;;;;;5048172;28;20045;-64
2023/01/30 01:32:39;;;;;;;4.43;3.20;;;19.10;53.00;;;;;;5051026;28;20087;-64
2023/01/30 01:35:05;;;;;;;4.20;2.70;;;19.10;53.00;;;;;;5052173;28;20098;-64
2023/01/30 01:37:31;;;;;;;4.88;2.90;;;19.10;53.00;;;;;;5050681;28;20045;-65
2023/01/30 01:42:41;;;;;;;4.47;3.08;;;19.10;53.10;;;;;;5052156;28;20051;-65
2023/01/30 01:45:12;;;;;;;5.25;2.78;;;19.10;53.10;;;;;;5050087;28;20049;-65
2023/01/30 01:47:42;;;;;;;4.40;2.65;;;19.10;53.10;;;;;;5052280;28;20542;-65
2023/01/30 01:50:27;;;;;;;6.25;2.90;;;19.10;53.10;;;;;;5033953;28;20094;-65
2023/01/30 01:52:53;;;;;;;4.22;2.58;;;19.10;53.10;;;;;;5050218;28;20049;-64
2023/01/30 01:55:19;;;;;;;5.38;3.17;;;19.10;53.10;;;;;;5052185;28;20051;-65
2023/01/30 01:57:48;;;;;;;4.28;2.67;;;19.10;53.10;;;;;;5050405;28;20045;-64
2023/01/30 02:00:18;;;;;;;3.72;2.60;;;19.10;53.10;;;;;;5033445;28;20112;-64
2023/01/30 02:02:50;;;;;;;4.00;2.60;;;19.10;53.10;;;;;;5050999;28;20080;-65
2023/01/30 02:05:16;;;;;;;3.65;2.63;;;19.10;53.10;;;;;;5032768;28;21891;-65
2023/01/30 02:07:42;;;;;;;4.28;2.47;;;19.10;53.10;;;;;;5052007;28;20480;-65
2023/01/30 02:10:09;;;;;;;5.82;2.65;;;19.10;53.00;;;;;;5050462;28;20049;-65
2023/01/30 02:12:34;;;;;;;5.00;2.95;;;19.10;53.70;;;;;;5050145;28;20080;-65
2023/01/30 02:15:00;;;;;;;3.80;2.45;;;19.10;53.00;;;;;;5051237;28;20454;-65
2023/01/30 02:17:26;;;;;;;4.30;2.60;;;19.10;53.00;;;;;;5054119;28;20041;-65
2023/01/30 02:20:18;;;;;;;3.38;2.30;;;19.10;53.00;;;;;;5054863;28;20385;-65
2023/01/30 02:22:50;;;;;;;3.58;2.55;;;19.10;53.00;;;;;;5035092;28;20065;-65
2023/01/30 02:25:38;;;;;;;4.53;2.55;;;19.10;53.00;;;;;;5035481;28;20049;-65
2023/01/30 02:28:36;;;;;;;4.05;2.30;;;19.20;53.00;;;;;;5033584;28;20054;-65
2023/01/30 02:31:04;;;;;;;3.38;2.47;;;19.10;53.00;;;;;;5034592;28;20085;-65
2023/01/30 02:33:56;;;;;;;5.00;3.00;;;19.20;53.00;;;;;;5054371;28;20041;-65
2023/01/30 02:36:50;;;;;;;3.70;2.20;;;19.20;53.00;;;;;;5037898;28;20378;-65
2023/01/30 02:39:23;;;;;;;3.53;2.10;;;19.20;53.00;;;;;;5054897;28;20041;-66
2023/01/30 02:42:12;;;;;;;4.50;2.35;;;19.20;53.00;;;;;;5053068;28;20048;-66
2023/01/30 02:44:52;;;;;;;4.28;2.50;;;19.20;53.00;;;;;;5054378;28;20481;-65
2023/01/30 02:47:24;;;;;;;4.07;2.10;;;19.20;53.00;;;;;;5056721;28;20044;-66
2023/01/30 02:49:59;;;;;;;4.03;2.30;;;19.20;53.00;;;;;;5056799;28;20498;-66
2023/01/30 02:52:25;;;;;;;3.53;2.20;;;19.20;53.00;;;;;;5057407;28;20047;-66
2023/01/30 02:54:51;;;;;;;4.07;2.33;;;19.20;53.00;;;;;;5056098;28;20048;-66
2023/01/30 02:57:21;;;;;;;3.03;2.20;;;19.20;53.00;;;;;;5075082;28;20044;-66
2023/01/30 02:59:56;;;;;;;3.55;2.00;;;19.20;53.00;;;;;;5075222;28;20083;-66
2023/01/30 03:02:43;;;;;;;2.80;1.80;;;19.20;53.00;;;;;;5074289;28;20398;-66
2023/01/30 03:05:25;;;;;;;3.22;1.67;;;19.20;53.00;;;;;;5073469;28;20041;-66
2023/01/30 03:07:54;;;;;;;2.70;1.77;;;19.20;53.00;;;;;;5073353;28;20048;-66
2023/01/30 03:10:28;;;;;;;3.10;1.65;;;19.20;53.70;;;;;;5056525;28;20067;-66
2023/01/30 03:13:13;;;;;;;3.30;1.73;;;19.20;53.00;;;;;;5066562;28;20068;-66
2023/01/30 03:15:55;;;;;;;2.55;1.60;;;19.20;53.00;;;;;;5052888;28;20067;-66
2023/01/30 03:18:21;;;;;;;2.78;1.50;;;19.20;52.90;;;;;;5038529;28;20071;-66
2023/01/30 03:20:47;;;;;;;3.60;1.83;;;19.20;53.00;;;;;;5036487;28;20049;-66
2023/01/30 03:23:13;;;;;;;2.50;1.85;;;19.20;53.00;;;;;;5054144;28;20043;-65
2023/01/30 03:25:38;;;;;;;2.00;1.30;;;19.30;53.00;;;;;;5054596;28;20041;-66
2023/01/30 03:28:04;;;;;;;1.60;1.50;;;19.30;53.00;;;;;;5052595;28;20056;-65
2023/01/30 03:30:30;;;;;;;2.63;1.42;;;19.30;53.00;;;;;;5052811;28;20037;-65
2023/01/30 03:32:55;;;;;;;3.05;1.88;;;19.30;53.00;;;;;;5053284;28;20047;-65
2023/01/30 03:35:21;;;;;;;4.78;1.88;;;19.20;52.90;;;;;;5054763;28;20401;-65
2023/01/30 03:37:46;;;;;;;2.63;1.50;;;19.30;52.90;;;;;;5035420;28;20041;-65
2023/01/30 03:40:13;;;;;;;2.53;1.50;;;19.30;53.00;;;;;;5052992;28;20041;-65
2023/01/30 03:42:38;;;;;;;2.45;1.45;;;19.30;53.00;;;;;;5054394;28;20048;-66
2023/01/30 03:45:04;;;;;;;3.75;1.70;;;19.30;52.90;;;;;;5052121;28;20052;-66
2023/01/30 03:47:30;;;;;;;2.20;1.40;;;19.30;52.90;;;;;;5054091;28;20049;-66
2023/01/30 03:49:55;;;;;;;2.30;1.42;;;19.30;52.90;;;;;;5053559;28;20052;-66
2023/01/30 03:52:21;;;;;;;2.33;1.20;;;19.30;52.90;;;;;;5052250;28;20036;-66
2023/01/30 03:54:46;;;;;;;2.78;1.45;;;19.30;52.90;;;;;;5053685;28;20098;-66
2023/01/30 03:57:12;;;;;;;2.13;1.40;;;19.30;52.90;;;;;;5053827;28;20484;-66
2023/01/30 03:59:37;;;;;;;3.65;1.38;;;19.30;53.60;;;;;;5068705;28;20409;-65
2023/01/30 04:02:03;;;;;;;2.75;1.27;;;19.30;52.80;;;;;;5052268;28;20089;-65
2023/01/30 04:04:29;;;;;;;2.35;1.55;;;19.30;52.80;;;;;;5053882;28;20041;-65
2023/01/30 04:06:54;;;;;;;2.72;1.25;;;19.30;52.80;;;;;;5052778;28;20049;-66
2023/01/30 04:09:20;;;;;;;2.25;1.30;;;19.30;52.70;;;;;;5052431;28;20477;-66
2023/01/30 04:11:45;;;;;;;1.95;1.20;;;19.40;52.80;;;;;;5051734;28;20040;-65
2023/01/30 04:14:11;;;;;;;2.85;1.35;;;19.40;52.90;;;;;;5053431;28;20041;-66
2023/01/30 04:16:36;;;;;;;3.33;1.40;;;19.40;52.80;;;;;;5053765;28;20054;-65
2023/01/30 04:19:02;;;;;;;2.47;1.40;;;19.40;52.70;;;;;;5052677;28;20872;-66
2023/01/30 04:21:27;;;;;;;3.03;1.27;;;19.40;52.70;;;;;;5053156;28;20128;-65
2023/01/30 04:23:53;;;;;;;2.65;1.33;;;19.40;52.70;;;;;;5062157;28;20442;-65
2023/01/30 04:26:18;;;;;;;2.78;1.15;;;19.40;52.60;;;;;;5071395;28;20045;-65
2023/01/30 04:28:44;;;;;;;2.58;1.30;;;19.40;52.60;;;;;;5070009;28;20049;-65
2023/01/30 04:31:10;;;;;;;2.72;1.40;;;19.40;52.60;;;;;;5053107;28;20080;-65
2023/01/30 04:33:35;;;;;;;4.47;1.45;;;19.50;52.60;;;;;;5071498;28;20058;-65
2023/01/30 04:36:02;;;;;;;2.53;1.27;;;19.50;52.60;;;;;;5071576;28;20094;-65
2023/01/30 04:38:28;;;;;;;3.20;1.25;;;19.50;52.60;;;;;;5072991;28;20052;-66
2023/01/30 04:40:54;;;;;;;4.15;1.25;;;19.50;52.60;;;;;;5071994;28;20051;-65
2023/01/30 04:43:20;;;;;;;2.85;1.33;;;19.50;52.60;;;;;;5071820;28;20040;-65
2023/01/30 04:45:46;;;;;;;2.90;0.90;;;19.50;52.60;;;;;;5073441;28;20043;-65
2023/01/30 04:48:12;;;;;;;3.25;1.30;;;19.50;52.50;;;;;;5072433;28;20037;-66
2023/01/30 04:50:40;;;;;;;1.98;0.98;;;19.60;52.60;;;;;;5073153;28;20480;-66
2023/01/30 04:53:06;;;;;;;3.33;1.20;;;19.60;52.60;;;;;;5071683;28;20040;-65
2023/01/30 04:55:31;;;;;;;2.25;1.10;;;19.60;52.50;;;;;;5072281;28;20047;-66
2023/01/30 04:57:57;;;;;;;2.85;1.17;;;19.60;52.50;;;;;;5072201;28;20589;-65
2023/01/30 05:00:23;;;;;;;2.00;1.00;;;19.60;52.50;;;;;;5072765;28;20039;-65
2023/01/30 05:02:48;;;;;;;2.33;1.15;;;19.60;52.50;;;;;;5051980;28;20072;-66
2023/01/30 05:05:14;;;;;;;2.78;1.10;;;19.60;52.40;;;;;;5050282;28;20135;-66
2023/01/30 05:07:39;;;;;;;2.13;0.90;;;19.60;52.40;;;;;;5051956;28;20069;-66
2023/01/30 05:10:05;;;;;;;3.35;1.00;;;19.70;52.40;;;;;;5051251;28;20400;-66
2023/01/30 05:12:31;;;;;;;2.33;1.02;;;19.70;52.40;;;;;;5052620;28;20163;-65
2023/01/30 05:14:56;;;;;;;2.85;1.30;;;19.70;52.50;;;;;;5052189;28;20135;-66
2023/01/30 05:17:22;;;;;;;1.83;1.00;;;19.70;52.40;;;;;;5052082;28;20052;-65
2023/01/30 05:19:48;;;;;;;3.85;1.08;;;19.70;52.40;;;;;;5052173;28;20045;-65
2023/01/30 05:22:13;;;;;;;2.20;0.90;;;19.70;52.40;;;;;;5051739;28;20076;-65
2023/01/30 05:24:39;;;;;;;2.72;1.20;;;19.70;52.30;;;;;;5051408;28;20060;-65
2023/01/30 05:27:04;;;;;;;2.88;1.00;;;19.70;52.30;;;;;;5052081;28;20552;-65
2023/01/30 05:29:30;;;;;;;2.03;0.80;;;19.70;52.30;;;;;;5051603;28;20445;-65
2023/01/30 05:31:55;;;;;;;3.30;1.00;;;19.70;52.30;;;;;;5050780;28;20056;-65
2023/01/30 05:34:21;;;;;;;2.80;1.00;;;19.70;52.20;;;;;;5052068;28;20171;-65
2023/01/30 05:36:46;;;;;;;3.40;1.08;;;19.70;52.20;;;;;;5051615;28;20483;-65
2023/01/30 05:39:12;;;;;;;4.10;1.30;;;19.70;52.20;;;;;;5050808;28;20485;-65
2023/01/30 05:41:38;;;;;;;4.95;1.20;;;19.70;52.20;;;;;;5052362;28;20059;-66
2023/01/30 05:44:03;;;;;;;2.78;0.90;;;19.80;52.20;;;;;;5050784;28;20045;-65
2023/01/30 05:46:29;;;;;;;3.60;1.00;;;19.80;52.20;;;;;;5052399;28;20041;-65
2023/01/30 05:48:54;;;;;;;3.58;1.08;;;19.70;52.10;;;;;;5051607;28;20091;-65
2023/01/30 05:51:22;;;;;;;4.25;1.20;;;19.80;52.10;;;;;;5051300;28;20044;-65
2023/01/30 05:53:47;;;;;;;3.88;1.30;;;19.80;52.10;;;;;;5051466;28;20451;-65
2023/01/30 05:56:13;;;;;;;2.97;1.00;;;19.80;52.10;;;;;;5052340;28;20037;-65
2023/01/30 05:58:39;;;;;;;4.07;1.10;;;19.80;52.00;;;;;;5050246;28;20067;-65
2023/01/30 06:01:06;;;;;;;2.58;1.00;;;19.80;52.10;;;;;;5050870;28;20048;-65
2023/01/30 06:03:31;;;;;;;3.92;1.10;;;19.80;52.00;;;;;;5052139;28;20086;-65
2023/01/30 06:05:57;;;;;;;2.60;1.08;;;19.80;52.00;;;;;;5050813;28;20049;-65
2023/01/30 06:08:23;;;;;;;3.15;1.10;;;19.80;51.90;;;;;;5051655;28;20053;-65
2023/01/30 06:10:48;;;;;;;4.30;0.90;;;19.80;52.00;;;;;;5050259;28;20049;-65
2023/01/30 06:13:14;;;;;;;2.88;1.30;;;19.90;52.00;;;;;;5051206;28;20053;-65
2023/01/30 06:15:39;;;;;;;3.30;1.00;;;19.80;51.90;;;;;;5051851;28;20457;-65
2023/01/30 06:18:05;;;;;;;4.20;1.23;;;19.90;51.90;;;;;;5051710;28;20056;-65
2023/01/30 06:20:30;;;;;;;3.33;1.25;;;19.90;51.90;;;;;;5051267;28;20110;-65
2023/01/30 06:22:56;;;;;;;6.25;1.30;;;19.80;51.90;;;;;;5050147;28;20041;-65
2023/01/30 06:25:22;;;;;;;4.82;1.40;;;19.90;51.90;;;;;;5050905;28;20044;-65
2023/01/30 06:27:47;;;;;;;2.70;1.27;;;19.90;51.90;;;;;;5051296;28;20519;-65
2023/01/30 06:30:13;;;;;;;2.58;0.82;;;19.90;51.80;;;;;;5050526;28;20045;-65
2023/01/30 06:32:39;;;;;;;3.67;1.05;;;19.90;51.90;;;;;;5050968;28;20358;-65
2023/01/30 06:35:04;;;;;;;2.13;1.00;;;19.90;51.80;;;;;;5051586;28;20041;-65
2023/01/30 06:37:30;;;;;;;3.67;1.08;;;19.90;51.80;;;;;;5051285;28;20095;-65
2023/01/30 06:39:55;;;;;;;4.57;1.00;;;19.90;51.80;;;;;;5050723;28;20520;-65
2023/01/30 06:42:21;;;;;;;4.30;0.90;;;19.90;51.80;;;;;;5051730;28;20047;-65
2023/01/30 06:44:47;;;;;;;2.78;0.85;;;19.90;51.80;;;;;;5050832;28;20041;-65
2023/01/30 06:47:12;;;;;;;3.85;1.20;;;19.90;51.80;;;;;;5049411;28;20481;-65
2023/01/30 06:49:38;;;;;;;4.55;1.00;;;19.90;51.80;;;;;;5051177;28;20083;-65
2023/01/30 06:52:03;;;;;;;4.85;1.10;;;19.90;51.70;;;;;;5049694;28;20045;-66
2023/01/30 06:54:29;;;;;;;3.35;1.15;;;19.90;51.70;;;;;;5049755;28;20044;-63
2023/01/30 06:56:54;;;;;;;3.80;1.20;;;19.90;51.70;;;;;;5050701;28;20453;-63
2023/01/30 06:59:20;;;;;;;3.38;1.02;;;19.90;51.70;;;;;;5050687;28;20045;-63
2023/01/30 07:01:46;;;;;;;5.90;1.05;;;19.90;51.70;;;;;;5050972;28;20424;-63
2023/01/30 07:04:11;;;;;;;4.20;1.42;;;19.90;51.70;;;;;;5055233;28;20393;-63
2023/01/30 07:06:37;;;;;;;3.90;0.98;;;19.90;51.60;;;;;;5053498;28;20091;-63
2023/01/30 07:09:03;;;;;;;2.20;0.85;;;19.90;51.60;;;;;;5052570;28;20045;-60
2023/01/30 07:11:29;;;;;;;6.22;1.10;;;19.90;51.60;;;;;;5055313;28;20473;-64
2023/01/30 07:13:55;;;;;;;4.15;1.10;;;19.90;51.70;;;;;;5054659;28;20091;-60
2023/01/30 07:16:27;;;;;;;4.72;1.38;;;20.00;51.80;;;;;;5053987;28;20461;-60
2023/01/30 07:18:55;;;;;;;5.05;1.40;;;19.90;51.70;;;;;;5054496;28;20493;-60
2023/01/30 07:21:21;;;;;;;4.82;1.10;;;20.00;51.80;;;;;;5054616;28;20076;-60
2023/01/30 07:23:47;;;;;;;5.22;1.20;;;19.90;51.80;;;;;;5053835;28;20091;-61
2023/01/30 07:26:13;;;;;;;4.00;1.08;;;19.90;51.80;;;;;;5054964;28;20041;-60
2023/01/30 07:28:38;;;;;;;5.82;0.93;;;19.90;51.80;;;;;;5054083;28;20090;-60
2023/01/30 07:31:04;;;;;;;3.50;0.98;;;19.90;51.80;;;;;;5054485;28;20527;-60
2023/01/30 07:33:29;;;;;;;8.15;1.38;;;19.90;51.90;;;;;;5053166;28;20075;-60
2023/01/30 07:35:55;;;;;;;6.68;1.10;;;19.90;51.90;;;;;;5059898;28;20155;-60
2023/01/30 07:38:20;;;;;;;5.70;1.20;;;19.90;51.90;;;;;;5066920;28;20042;-61
2023/01/30 07:40:46;;;;;;;6.10;1.20;;;19.90;51.90;;;;;;5074572;28;20044;-61
2023/01/30 07:43:12;;;;;;;3.15;1.00;;;20.00;52.20;;;;;;5073589;28;20040;-61
2023/01/30 07:45:42;;;;;;;5.38;1.23;;;19.90;52.20;;;;;;5074715;28;20124;-61
2023/01/30 07:48:09;;;;;;;5.60;1.13;;;20.00;52.30;;;;;;5073878;28;20060;-60
2023/01/30 07:50:34;;;;;;;7.18;1.35;;;20.00;52.40;;;;;;5073643;28;20098;-60
2023/01/30 07:53:07;;;;;;;5.53;0.98;;;20.00;52.40;;;;;;5074281;28;20045;-60
2023/01/30 07:55:33;;;;;;;6.03;1.10;;;20.00;52.60;;;;;;5055920;28;20087;-61
2023/01/30 07:57:58;;;;;;;5.05;1.02;;;20.00;52.60;;;;;;5071633;28;20068;-62
2023/01/30 08:00:24;;;;;;;4.38;0.95;;;20.00;52.60;;;;;;5074426;28;20473;-63
2023/01/30 08:02:50;;;;;;;5.00;1.23;;;20.00;52.60;;;;;;5074014;28;20048;-64
2023/01/30 08:05:15;;;;;;;4.50;1.30;;;20.00;52.60;;;;;;5072085;28;20169;-61
2023/01/30 08:07:41;;;;;;;9.68;1.73;;;20.00;52.70;;;;;;5074327;28;20089;-61
2023/01/30 08:10:07;;;;;;;7.28;1.48;;;20.00;52.80;;;;;;5072177;28;20048;-61
2023/01/30 08:12:32;;;;;;;6.35;1.20;;;20.00;53.50;;;;;;5073515;28;20075;-62
2023/01/30 08:14:58;;;;;;;4.25;1.00;;;20.00;52.90;;;;;;5071913;28;20098;-64
2023/01/30 08:17:24;;;;;;;4.57;1.02;;;20.00;52.80;;;;;;5074022;28;20041;-63
2023/01/30 08:19:49;;;;;;;4.80;1.10;;;20.00;52.90;;;;;;5064578;28;20049;-63
2023/01/30 08:22:15;;;;;;;4.95;1.20;;;20.00;52.90;;;;;;5052875;28;20040;-62
2023/01/30 08:24:40;;;;;;;8.77;1.33;;;20.00;52.90;;;;;;5052892;28;20536;-63
2023/01/30 08:27:06;;;;;;;5.55;1.05;;;20.00;52.90;;;;;;5051907;28;20114;-63
2023/01/30 08:29:31;;;;;;;4.88;1.60;;;20.00;52.90;;;;;;5053325;28;20045;-63
2023/01/30 08:31:58;;;;;;;4.90;1.30;;;20.00;52.90;;;;;;5052407;28;20129;-64
2023/01/30 08:34:24;;;;;;;4.13;0.95;;;20.00;52.80;;;;;;5053401;28;20075;-64
2023/01/30 08:36:49;;;;;;;6.93;1.23;;;20.00;53.00;;;;;;5052975;28;20037;-65
2023/01/30 08:39:15;;;;;;;6.20;1.10;;;20.10;53.00;;;;;;5067852;28;20819;-65
2023/01/30 08:41:43;;;;;;;6.50;1.10;;;20.00;53.00;;;;;;5068839;28;20044;-64
2023/01/30 08:44:09;;;;;;;;;;;20.00;53.00;;;;;;5053642;28;20076;-63
2023/01/30 08:46:35;;;;;;;5.60;1.33;;;20.10;53.00;;;;;;5052463;28;19986;-65
2023/01/30 08:49:00;;;;;;;4.45;1.00;;;20.00;53.00;;;;;;5052579;28;20087;-65
2023/01/30 08:51:26;;;;;;;5.50;1.13;;;20.10;53.00;;;;;;5052790;28;20048;-67
2023/01/30 08:53:51;;;;;;;4.47;1.23;;;20.10;53.00;;;;;;5050141;28;20106;-65
2023/01/30 08:56:17;;;;;;;5.30;1.00;;;20.10;53.10;;;;;;5052378;28;20041;-65
2023/01/30 08:58:44;;;;;;;6.30;0.98;;;20.10;53.70;;;;;;5033396;28;20041;-63
2023/01/30 09:01:10;;;;;;;4.85;1.10;;;20.10;53.00;;;;;;5032630;28;20038;-64
2023/01/30 09:03:35;;;;;;;4.70;1.00;;;20.00;52.90;;;;;;5032377;28;20044;-63
2023/01/30 09:06:01;;;;;;;5.90;1.25;;;20.10;53.00;;;;;;5031667;28;20044;-65
2023/01/30 09:08:26;;;;;;;7.63;1.40;;;20.10;52.90;;;;;;5034740;28;20041;-64
2023/01/30 09:10:56;;;;;;;6.75;1.35;;;20.10;52.80;;;;;;5031221;28;20121;-63
2023/01/30 09:13:21;;;;;;;5.55;1.13;;;20.10;52.80;;;;;;5040645;28;20045;-62
2023/01/30 09:15:47;;;;;;;5.28;1.50;;;20.00;52.80;;;;;;5050939;28;20060;-63
2023/01/30 09:18:12;;;;;;;5.43;1.38;;;20.10;52.90;;;;;;5051554;28;20049;-64
2023/01/30 09:20:38;;;;;;;6.53;1.35;;;20.10;52.90;;;;;;5052120;28;20040;-63
2023/01/30 09:23:03;;;;;;;4.63;1.10;;;20.00;52.70;;;;;;5051289;28;20107;-60
2023/01/30 09:25:29;;;;;;;6.25;1.30;;;20.10;52.70;;;;;;5052219;28;20049;-60
2023/01/30 09:27:55;;;;;;;8.30;1.65;;;20.10;52.60;;;;;;5050789;28;20508;-60
2023/01/30 09:30:20;;;;;;;5.75;1.25;;;20.10;52.60;;;;;;5051693;28;20407;-60
2023/01/30 09:32:46;;;;;;;5.43;1.20;;;20.10;52.50;;;;;;5052088;28;20036;-60
2023/01/30 09:35:12;;;;;;;10.32;1.90;;;20.10;52.40;;;;;;5051999;28;20135;-63
2023/01/30 09:37:38;;;;;;;9.88;1.35;;;20.10;52.40;;;;;;5050954;28;20116;-63
2023/01/30 09:40:04;;;;;;;6.10;1.63;;;20.10;52.50;;;;;;5050423;28;20056;-63
2023/01/30 09:43:01;;;;;;;10.75;1.15;;;20.10;52.60;;;;;;5051396;28;20086;-63
2023/01/30 09:45:57;;;;;;;5.82;1.15;;;20.10;52.70;;;;;;5051423;28;20041;-64
2023/01/30 09:49:00;;;;;;;8.18;1.17;;;20.10;52.80;;;;;;5052184;28;20076;-65
2023/01/30 09:51:29;;;;;;;5.68;1.08;;;20.10;52.90;;;;;;5056349;28;20041;-64
2023/01/30 09:54:20;;;;;;;5.53;1.38;;;20.10;52.90;;;;;;5052964;28;20041;-65
2023/01/30 09:56:49;;;;;;;7.35;1.35;;;20.10;52.90;;;;;;5051140;28;20037;-62
2023/01/30 09:59:19;;;;;;;6.85;1.40;;;20.10;52.90;;;;;;5048390;28;20037;-67
2023/01/30 10:02:00;;;;;;;12.68;1.75;;;20.10;52.90;;;;;;5048017;28;20107;-63
2023/01/30 10:04:43;;;;;;;10.52;1.60;;;20.10;52.80;;;;;;5048174;28;20045;-64
2023/01/30 10:07:20;;;;;;;9.85;1.58;;;20.10;52.90;;;;;;5033134;28;20083;-64
2023/01/30 10:10:00;;;;;;;10.75;1.55;;;20.10;52.90;;;;;;5049174;28;20447;-64
2023/01/30 10:12:45;;;;;;;7.00;1.27;;;20.10;52.90;;;;;;5048806;28;20059;-64
2023/01/30 10:15:33;;;;;;;9.30;1.73;;;20.00;52.90;;;;;;5041515;28;20045;-61
2023/01/30 10:18:16;;;;;;;7.53;1.50;;;20.00;52.80;;;;;;5051004;28;20053;-64
2023/01/30 10:21:09;;;;;;;14.30;1.65;;;20.00;52.80;;;;;;5050955;28;20045;-65
2023/01/30 10:23:56;;;;;;;10.10;1.67;;;20.00;52.70;;;;;;5050938;28;20085;-64
2023/01/30 10:26:23;;;;;;;9.85;1.77;;;20.00;52.70;;;;;;5066541;28;20048;-63
2023/01/30 10:29:04;;;;;;;5.70;1.25;;;20.00;52.60;;;;;;5049979;28;20052;-62
2023/01/30 10:31:36;;;;;;;9.40;1.63;;;20.00;52.20;;;;;;5050498;28;20080;-61
2023/01/30 10:34:05;;;;;;;9.27;1.77;;;20.10;52.10;;;;;;5048591;28;20100;-61
2023/01/30 10:36:40;;;;;;;12.63;2.00;;;20.00;51.80;;;;;;5050095;28;20568;-61
2023/01/30 10:39:23;;;;;;;13.95;3.63;;;20.00;51.80;;;;;;5056169;28;20045;-61
2023/01/30 10:42:05;;;;;;;9.07;1.60;;;20.00;51.80;;;;;;5055608;28;20041;-61
2023/01/30 10:44:31;;;;;;;8.43;1.92;;;20.00;51.80;;;;;;5053035;28;20546;-61
2023/01/30 10:47:19;;;;;;;10.00;2.38;;;20.00;51.90;;;;;;5035631;28;20037;-61
2023/01/30 10:49:56;;;;;;;12.50;2.20;;;20.10;51.90;;;;;;5054882;28;20045;-63
2023/01/30 10:52:30;;;;;;;11.23;2.95;;;20.10;51.90;;;;;;5054154;28;20048;-61
2023/01/30 10:55:26;;;;;;;18.52;3.05;;;20.10;51.90;;;;;;5053282;28;20052;-61
2023/01/30 10:58:05;;;;;;;11.93;2.53;;;20.10;51.90;;;;;;5054003;28;20048;-61
2023/01/30 11:00:53;;;;;;;16.23;3.13;;;20.10;52.10;;;;;;5050884;28;20052;-61
2023/01/30 11:03:20;;;;;;;10.05;2.22;;;20.10;52.20;;;;;;5053718;28;20507;-63
2023/01/30 11:05:48;;;;;;;15.45;2.83;;;20.10;52.20;;;;;;5051206;28;20033;-63
2023/01/30 11:08:23;;;;;;;13.55;2.95;;;20.00;52.20;;;;;;5052033;28;20483;-63
2023/01/30 11:10:49;;;;;;;10.15;2.30;;;20.00;52.20;;;;;;5051121;28;20048;-61
2023/01/30 11:13:18;;;;;;;13.48;2.90;;;20.00;52.20;;;;;;5054365;28;20041;-61
2023/01/30 11:15:46;;;;;;;10.68;2.40;;;20.00;52.30;;;;;;5053293;28;20520;-61
2023/01/30 11:18:12;;;;;;;10.00;2.92;;;20.00;52.40;;;;;;5053138;28;20064;-62
2023/01/30 11:20:42;;;;;;;11.70;2.53;;;19.90;52.30;;;;;;5052515;28;20441;-62
2023/01/30 11:23:23;;;;;;;10.98;2.35;;;19.90;52.40;;;;;;5050674;28;20156;-60
2023/01/30 11:25:50;;;;;;;11.23;2.60;;;19.90;52.20;;;;;;5053123;28;20047;-61
2023/01/30 11:28:18;;;;;;;12.85;2.72;;;19.80;52.30;;;;;;5053731;28;20052;-61
2023/01/30 11:30:48;;;;;;;12.60;2.67;;;19.90;52.40;;;;;;5054282;28;20056;-61
2023/01/30 11:33:15;;;;;;;9.77;1.73;;;19.90;52.50;;;;;;5053404;28;20128;-61
2023/01/30 11:35:53;;;;;;;10.50;2.72;;;19.80;52.40;;;;;;5052783;28;20072;-62
2023/01/30 11:38:29;;;;;;;7.18;1.83;;;19.80;52.50;;;;;;5053568;28;20438;-61
2023/01/30 11:41:09;;;;;;;10.35;1.98;;;19.80;52.50;;;;;;5054250;28;20045;-61
2023/01/30 11:43:38;;;;;;;8.13;2.22;;;19.80;52.50;;;;;;5036368;28;20053;-61
2023/01/30 11:46:05;;;;;;;10.18;2.58;;;19.80;52.50;;;;;;5034297;28;20041;-61
2023/01/30 11:48:31;;;;;;;10.02;1.90;;;19.80;52.50;;;;;;5052731;28;20044;-61
2023/01/30 11:51:03;;;;;;;8.45;2.10;;;19.80;52.40;;;;;;5051599;28;20063;-61
2023/01/30 11:53:42;;;;;;;9.05;2.13;;;19.80;52.50;;;;;;5035504;28;20045;-61
2023/01/30 11:56:16;;;;;;;10.23;1.95;;;19.80;52.40;;;;;;5034769;28;20071;-61
2023/01/30 11:58:45;;;;;;;9.60;2.25;;;19.80;52.40;;;;;;5054088;28;20041;-60
2023/01/30 12:01:10;;;;;;;8.48;2.13;;;19.80;52.50;;;;;;5052365;28;20385;-60
2023/01/30 12:03:43;;;;;;;8.73;2.30;;;19.80;52.50;;;;;;5052109;28;20537;-60
2023/01/30 12:06:08;;;;;;;9.23;2.42;;;19.80;52.50;;;;;;5052522;28;20053;-60
2023/01/30 12:08:38;;;;;;;10.95;2.17;;;19.80;52.60;;;;;;5054026;28;20064;-60
2023/01/30 12:11:06;;;;;;;11.30;2.40;;;19.70;52.60;;;;;;5051700;28;20041;-59
2023/01/30 12:13:36;;;;;;;8.60;2.00;;;19.70;52.70;;;;;;5036340;28;20111;-60
2023/01/30 12:16:10;;;;;;;9.57;2.38;;;19.70;52.70;;;;;;5051996;28;20331;-60
2023/01/30 12:19:00;;;;;;;11.82;2.22;;;19.70;52.70;;;;;;5035027;28;20078;-60
2023/01/30 12:21:51;;;;;;;9.10;2.17;;;19.70;52.60;;;;;;5052303;28;20055;-60
2023/01/30 12:24:23;;;;;;;9.52;2.28;;;19.70;52.60;;;;;;5051139;28;20041;-60
2023/01/30 12:27:09;;;;;;;7.80;1.95;;;19.70;52.70;;;;;;5035282;28;20497;-59
2023/01/30 12:29:59;;;;;;;8.15;1.95;;;19.70;52.40;;;;;;5041049;28;20099;-60
2023/01/30 12:32:27;;;;;;;8.55;2.13;;;19.70;52.40;;;;;;5053085;28;20041;-60
2023/01/30 12:34:52;;;;;;;10.52;1.80;;;19.70;52.40;;;;;;5053075;28;20037;-60
2023/01/30 12:37:39;;;;;;;9.35;2.25;;;19.70;52.40;;;;;;5052554;28;20048;-61
2023/01/30 12:40:24;;;;;;;11.60;2.67;;;19.80;52.30;;;;;;5050794;28;20128;-62
2023/01/30 12:43:12;;;;;;;9.05;1.90;;;19.80;52.30;;;;;;5053188;28;20049;-60
2023/01/30 12:46:01;;;;;;;6.47;1.58;;;19.80;52.30;;;;;;5051405;28;20126;-61
2023/01/30 12:48:42;;;;;;;8.77;1.88;;;19.80;52.20;;;;;;5051868;28;20041;-61
2023/01/30 12:51:50;;;;;;;6.95;1.75;;;19.80;52.20;;;;;;5047677;28;20053;-61
2023/01/30 12:54:39;;;;;;;6.97;1.50;;;19.80;52.10;;;;;;5030164;28;20060;-61
2023/01/30 12:57:16;;;;;;;6.13;1.45;;;19.80;52.10;;;;;;5029668;28;20045;-61
2023/01/30 13:00:03;;;;;;;7.47;2.03;;;19.90;52.20;;;;;;5040007;28;20409;-62
2023/01/30 13:02:41;;;;;;;6.28;1.35;;;19.90;52.20;;;;;;5051201;28;20401;-60
2023/01/30 13:05:20;;;;;;;8.65;1.73;;;19.90;52.20;;;;;;5051426;28;20106;-60
2023/01/30 13:08:04;;;;;;;6.53;1.63;;;19.90;52.00;;;;;;5051078;28;20064;-60